Flight Track Log - Related Links

Times and Time Zones

All times are in EDT time to prevent confusion due to time zone crossing. See the C-GEDA flight status page for this flight to view local times or setup timezone preferences in your user account.


Time Position Orientation Groundspeed Altitude Reporting Facility
EDT Latitude Longitude Course Direction KTS MPH feet Rate Location/Type
Fri 01:44:26 PM 53.3000 -113.6167 307° West 50 58 2,400  Level Edmonton Center
Fri 01:45:26 PM 53.3333 -113.5833 31° Northeast 130 150 3,400 850 Climbing Edmonton Center
Fri 01:46:26 PM 53.3667 -113.6333 318° Northwest 150 173 4,100 800 Climbing Edmonton Center
Fri 01:47:26 PM 53.3667 -113.6833 270° West 150 173 5,000 707 Climbing Edmonton Center
Fri 01:50:00 PM 53.4786 -113.9185 307° West  Level FlightAware Approximate
Fri 01:53:22 PM 53.5720 -113.9550 270° West 151 174 9,000  Level FlightAware ADS-B
Fri 01:53:57 PM 53.5870 -113.9830 312° West 152 175 9,100 92 Climbing FlightAware ADS-B
Fri 01:54:27 PM 53.5990 -114.0050 313° West 152 175 9,100  Level FlightAware ADS-B
Fri 01:54:57 PM 53.6110 -114.0280 311° West 152 175 9,100  Level FlightAware ADS-B
Fri 01:55:27 PM 53.6230 -114.0500 313° West 152 175 9,100 1,114 Level FlightAware ADS-B
Fri 01:57:17 PM 53.6820 -114.1630 311° West 166 191 11,700 1,040 Climbing FlightAware ADS-B
Fri 01:57:57 PM 53.7020 -114.1990 313° West 166 191 11,700  Level FlightAware ADS-B
Fri 01:58:42 PM 53.7230 -114.2380 312° West 166 191 11,700  Level FlightAware ADS-B
Fri 01:59:22 PM 53.7400 -114.2710 311° West 166 191 11,700 173 Level FlightAware ADS-B
Fri 02:00:26 PM 53.7667 -114.3667 311° West 170 196 12,000 145 Climbing Edmonton Center
Fri 02:01:26 PM 53.7833 -114.4333 293° West 170 196 12,000  Level Edmonton Center
Fri 02:02:26 PM 53.8167 -114.5000 310° West 170 196 12,000  Level Edmonton Center
Fri 02:03:26 PM 53.8500 -114.5667 310° West 180 207 12,000  Level Edmonton Center
Fri 02:04:26 PM 53.8833 -114.6333 310° West 180 207 12,000  Level Edmonton Center
Fri 02:05:26 PM 53.9167 -114.7000 310° West 180 207 12,000  Level Edmonton Center
Fri 02:06:26 PM 53.9500 -114.7667 310° West 180 207 12,000  Level Edmonton Center
Fri 02:07:26 PM 53.9833 -114.8333 310° West 180 207 12,000  Level Edmonton Center
Fri 02:08:26 PM 54.0167 -114.9000 310° West 180 207 12,000  Level Edmonton Center
Fri 02:09:26 PM 54.0333 -114.9667 293° West 180 207 12,000  Level Edmonton Center
Fri 02:10:26 PM 54.0667 -115.0333 310° West 180 207 12,000  Level Edmonton Center
Fri 02:11:26 PM 54.1167 -115.1000 322° Northwest 180 207 12,000  Level Edmonton Center
Fri 02:12:26 PM 54.1333 -115.1667 293° West 180 207 12,000  Level Edmonton Center
Fri 02:13:26 PM 54.1667 -115.2500 304° West 180 207 12,000  Level Edmonton Center
Fri 02:14:26 PM 54.2000 -115.3167 311° West 180 207 12,000  Level Edmonton Center
Fri 02:15:26 PM 54.2333 -115.4000 304° West 180 207 12,000  Level Edmonton Center
Fri 02:16:26 PM 54.2667 -115.4667 311° West 180 207 12,000  Level Edmonton Center
Fri 02:17:26 PM 54.3000 -115.5333 311° West 180 207 12,000  Level Edmonton Center
Fri 02:18:26 PM 54.3167 -115.5833 300° West 180 207 12,000  Level Edmonton Center
Fri 02:19:26 PM 54.3500 -115.6500 311° West 180 207 12,000  Level Edmonton Center
Fri 02:20:26 PM 54.3833 -115.7167 311° West 180 207 12,000  Level Edmonton Center
Fri 02:21:26 PM 54.4167 -115.8000 305° West 180 207 12,000  Level Edmonton Center
Fri 02:22:26 PM 54.4500 -115.8667 311° West 180 207 12,000  Level Edmonton Center
Fri 02:23:26 PM 54.4833 -115.9000 330° Northwest 170 196 12,000 50 Level Edmonton Center
Fri 02:24:26 PM 54.5000 -116.0000 286° West 170 196 12,100 50 Climbing Edmonton Center
Fri 02:25:26 PM 54.5333 -116.0333 330° Northwest 170 196 12,100  Level Edmonton Center
Fri 02:26:26 PM 54.5667 -116.1000 311° West 170 196 12,100  Level Edmonton Center
Fri 02:27:26 PM 54.6000 -116.1667 311° West 170 196 12,100  Level Edmonton Center
Fri 02:28:26 PM 54.6167 -116.2333 293° West 170 196 12,100  Level Edmonton Center
Fri 02:29:26 PM 54.6667 -116.3000 322° Northwest 160 184 12,100  Level Edmonton Center
Fri 02:30:26 PM 54.6833 -116.3667 293° West 170 196 12,100  Level Edmonton Center
Fri 02:31:26 PM 54.7167 -116.4333 311° West 170 196 12,100  Level Edmonton Center
Fri 02:32:26 PM 54.7333 -116.5000 293° West 170 196 12,100  Level Edmonton Center
Fri 02:33:26 PM 54.7833 -116.5833 316° Northwest 170 196 12,100  Level Edmonton Center
Fri 02:34:26 PM 54.8000 -116.6167 311° West 170 196 12,100  Level Edmonton Center
Fri 02:35:26 PM 54.8333 -116.6833 311° West 170 196 12,100 -300 Level Edmonton Center
Fri 02:36:26 PM 54.8667 -116.7500 311° West 170 196 11,500 -600 Descending Edmonton Center
Fri 02:37:26 PM 54.8833 -116.8500 286° West 190 219 10,900 -700 Descending Edmonton Center
Fri 02:38:26 PM 54.9333 -116.8833 339° North 200 230 10,100 -800 Descending Edmonton Center
Fri 02:39:26 PM 54.9833 -116.9667 316° Northwest 210 242 9,300 -850 Descending Edmonton Center
Fri 02:40:26 PM 55.0167 -117.0167 319° Northwest 190 219 8,400 -850 Descending Edmonton Center
Fri 02:41:26 PM 55.0667 -117.0833 323° Northwest 190 219 7,600 -750 Descending Edmonton Center
Fri 02:42:26 PM 55.1167 -117.1333 330° Northwest 200 230 6,900 -550 Descending Edmonton Center
Fri 02:43:26 PM 55.1500 -117.2000 311° West 180 207 6,500 -400 Descending Edmonton Center
Fri 02:44:26 PM 55.1833 -117.2333 330° Northwest 180 207 6,100 -400 Descending Edmonton Center
Fri 02:45:26 PM 55.2333 -117.2833 330° Northwest 180 207 5,700 -400 Descending Edmonton Center
Fri 02:46:26 PM 55.2667 -117.3500 311° West 170 196 5,300 -400 Descending Edmonton Center
Fri 02:47:26 PM 55.3167 -117.4000 330° Northwest 170 196 4,900 -400 Descending Edmonton Center
Fri 02:48:26 PM 55.3333 -117.4333 311° West 180 207 4,500 -200 Descending Edmonton Center
Fri 02:49:26 PM 55.3833 -117.5167 317° Northwest 170 196 4,500  Level Edmonton Center
Fri 02:50:26 PM 55.4167 -117.5500 330° Northwest 160 184 4,500  Level Edmonton Center
Fri 02:51:26 PM 55.4667 -117.6000 330° Northwest 160 184 4,500  Level Edmonton Center
Fri 02:52:26 PM 55.4833 -117.6500 300° West 170 196 4,500  Level Edmonton Center
Fri 02:53:26 PM 55.5333 -117.6833 339° North 170 196 4,500  Level Edmonton Center
Fri 02:54:26 PM 55.5667 -117.7500 312° West 160 184 4,500  Level Edmonton Center
Fri 02:55:26 PM 55.6000 -117.8000 320° Northwest 170 196 4,500  Level Edmonton Center
Fri 02:56:26 PM 55.6333 -117.8500 320° Northwest 160 184 4,500  Level Edmonton Center
Fri 02:57:26 PM 55.6500 -117.9167 294° West 160 184 4,500  Level Edmonton Center
Fri 02:58:26 PM 55.6333 -118.0000 251° West 160 184 4,500  Level Edmonton Center
Fri 02:59:26 PM 55.6667 -118.0667 312° West 170 196 4,500  Level Edmonton Center
Fri 03:00:26 PM 55.6667 -118.1667 270° West 170 196 4,500 -300 Level Edmonton Center
Fri 03:01:26 PM 55.6833 -118.2500 290° West 170 196 3,900 -450 Descending Edmonton Center
Fri 03:02:26 PM 55.6833 -118.3167 270° West 180 207 3,600 -300 Descending Edmonton Center
Fri 03:04:00 PM 55.7069 -118.4373 289° West  Level FlightAware Approximate

Login

Don't have an account? Register now (free) for customized features, flight alerts, and more!